createdAt,value
2022-11-15T00:01:21.747Z,6.79
2022-11-15T00:03:53.315Z,6.84
2022-11-15T00:06:21.628Z,6.86
2022-11-15T00:08:49.651Z,6.89
2022-11-15T00:11:17.701Z,6.87
2022-11-15T00:13:47.114Z,6.91
2022-11-15T00:16:15.187Z,6.91
2022-11-15T00:18:47.818Z,6.91
2022-11-15T00:21:19.717Z,6.92
2022-11-15T00:23:47.809Z,6.98
2022-11-15T00:26:19.358Z,6.99
2022-11-15T00:28:48.836Z,6.96
2022-11-15T00:31:16.948Z,6.97
2022-11-15T00:33:46.349Z,7.01
2022-11-15T00:36:14.496Z,7.01
2022-11-15T00:38:42.626Z,7.02
2022-11-15T00:41:10.866Z,7.04
2022-11-15T00:43:41.249Z,7.04
2022-11-15T00:46:10.978Z,7.06
2022-11-15T00:48:39.347Z,7.06
2022-11-15T00:51:07.532Z,7.18
2022-11-15T00:53:35.722Z,7.10
2022-11-15T00:56:03.972Z,7.14
2022-11-15T00:58:31.938Z,7.16
2022-11-15T01:01:08.413Z,7.16
2022-11-15T01:03:38.580Z,7.14
2022-11-15T01:06:07.454Z,7.17
2022-11-15T01:08:35.693Z,7.20
2022-11-15T01:11:05.119Z,7.21
2022-11-15T01:13:34.528Z,7.22
2022-11-15T01:16:08.614Z,7.21
2022-11-15T01:18:38.318Z,7.30
2022-11-15T01:21:11.279Z,7.28
2022-11-15T01:23:39.932Z,7.28
2022-11-15T01:26:11.881Z,7.26
2022-11-15T01:28:42.918Z,7.26
2022-11-15T01:31:14.435Z,7.32
2022-11-15T01:33:43.966Z,7.34
2022-11-15T01:36:14.264Z,7.38
2022-11-15T01:38:42.421Z,7.43
2022-11-15T01:41:18.433Z,7.44
2022-11-15T01:43:46.564Z,7.48
2022-11-15T01:46:27.425Z,7.53
2022-11-15T01:48:59.800Z,7.53
2022-11-15T01:51:33.003Z,7.55
2022-11-15T01:54:04.276Z,7.55
2022-11-15T01:56:38.709Z,7.57
2022-11-15T01:59:10.280Z,7.58
2022-11-15T02:01:39.850Z,7.62
2022-11-15T02:04:15.223Z,7.69
2022-11-15T02:06:44.905Z,7.67
2022-11-15T02:09:14.446Z,7.77
2022-11-15T02:11:43.605Z,7.73
2022-11-15T02:14:15.068Z,7.76
2022-11-15T02:16:55.350Z,7.80
2022-11-15T02:19:39.543Z,7.89
2022-11-15T02:22:17.016Z,7.87
2022-11-15T02:25:03.438Z,7.93
2022-11-15T02:28:07.451Z,7.92
2022-11-15T02:30:45.160Z,7.95
2022-11-15T02:33:24.302Z,7.95
2022-11-15T02:36:00.428Z,7.95
2022-11-15T02:38:36.647Z,8.00
2022-11-15T02:41:09.068Z,8.01
2022-11-15T02:44:00.289Z,8.01
2022-11-15T02:46:54.730Z,8.10
2022-11-15T02:49:25.228Z,8.10
2022-11-15T02:51:54.583Z,8.11
2022-11-15T02:54:26.144Z,8.10
2022-11-15T02:56:56.758Z,8.15
2022-11-15T03:00:08.442Z,8.16
2022-11-15T03:02:51.505Z,8.18
2022-11-15T03:05:22.159Z,8.26
2022-11-15T03:08:02.126Z,8.34
2022-11-15T03:10:38.258Z,8.31
2022-11-15T03:13:23.566Z,8.35
2022-11-15T03:15:59.899Z,8.39
2022-11-15T03:18:34.388Z,8.37
2022-11-15T03:21:06.615Z,8.42
2022-11-15T03:23:36.209Z,8.42
2022-11-15T03:26:07.334Z,8.51
2022-11-15T03:28:44.849Z,8.51
2022-11-15T03:31:34.355Z,8.53
2022-11-15T03:34:09.081Z,8.59
2022-11-15T03:36:37.695Z,8.60
2022-11-15T03:39:09.814Z,8.64
2022-11-15T03:41:43.043Z,8.67
2022-11-15T03:44:17.593Z,8.73
2022-11-15T03:46:54.345Z,8.74
2022-11-15T03:49:30.206Z,8.76
2022-11-15T03:51:59.801Z,8.76
2022-11-15T03:54:27.853Z,8.85
2022-11-15T03:56:55.908Z,8.87
2022-11-15T03:59:24.120Z,8.90
2022-11-15T04:01:52.198Z,8.90
2022-11-15T04:04:20.300Z,8.94
2022-11-15T04:06:49.779Z,9.01
2022-11-15T04:09:17.880Z,8.98
2022-11-15T04:11:45.979Z,9.07
2022-11-15T04:14:14.200Z,9.06
2022-11-15T04:16:43.997Z,9.08
2022-11-15T04:19:33.049Z,9.08
2022-11-15T04:22:20.166Z,9.08
2022-11-15T04:24:48.253Z,9.12
2022-11-15T04:27:16.287Z,9.17
2022-11-15T04:29:44.443Z,9.17
2022-11-15T04:32:12.471Z,9.18
2022-11-15T04:34:40.520Z,9.18
2022-11-15T04:37:17.207Z,9.23
2022-11-15T04:39:45.706Z,9.23
2022-11-15T04:42:13.792Z,9.25
2022-11-15T04:44:41.848Z,9.26
2022-11-15T04:47:09.877Z,9.30
2022-11-15T04:49:37.969Z,9.27
2022-11-15T04:52:06.329Z,9.30
2022-11-15T04:54:35.729Z,9.29
2022-11-15T04:57:04.078Z,9.27
2022-11-15T04:59:32.035Z,9.27
2022-11-15T05:02:00.089Z,9.28
2022-11-15T05:04:27.563Z,9.31
2022-11-15T05:06:55.658Z,9.28
2022-11-15T05:09:23.978Z,9.33
2022-11-15T05:11:53.478Z,9.33
2022-11-15T05:14:21.590Z,9.31
2022-11-15T05:16:49.598Z,9.33
2022-11-15T05:19:17.605Z,9.30
2022-11-15T05:21:45.638Z,9.41
2022-11-15T05:24:13.712Z,9.41
2022-11-15T05:26:41.865Z,9.42
2022-11-15T05:29:12.982Z,9.44
2022-11-15T05:31:43.473Z,9.44
2022-11-15T05:34:12.005Z,9.50
2022-11-15T05:36:43.017Z,9.44
2022-11-15T05:39:11.042Z,9.47
2022-11-15T05:41:43.746Z,9.50
2022-11-15T05:44:16.566Z,9.48
2022-11-15T05:46:44.749Z,9.48
2022-11-15T05:49:15.962Z,9.52
2022-11-15T05:51:47.161Z,9.54
2022-11-15T05:54:16.417Z,9.54
2022-11-15T05:56:45.651Z,9.57
2022-11-15T05:59:15.421Z,9.53
2022-11-15T06:01:44.248Z,9.57
2022-11-15T06:04:12.337Z,9.63
2022-11-15T06:06:40.370Z,9.60
2022-11-15T06:09:08.475Z,9.61
2022-11-15T06:11:36.453Z,9.62
2022-11-15T06:14:04.705Z,9.68
2022-11-15T06:16:34.347Z,9.67
2022-11-15T06:19:02.701Z,9.67
2022-11-15T06:21:30.706Z,9.74
2022-11-15T06:23:59.032Z,9.72
2022-11-15T06:26:27.061Z,9.71
2022-11-15T06:28:55.105Z,9.71
2022-11-15T06:31:23.168Z,9.70
2022-11-15T06:33:52.519Z,9.76
2022-11-15T06:36:20.614Z,9.79
2022-11-15T06:38:48.898Z,9.78
2022-11-15T06:41:17.926Z,9.82
2022-11-15T06:43:46.164Z,9.88
2022-11-15T06:46:14.218Z,9.80
2022-11-15T06:48:42.266Z,9.79
2022-11-15T06:51:11.748Z,9.81
2022-11-15T06:53:40.181Z,9.80
2022-11-15T06:56:10.156Z,9.80
2022-11-15T06:58:38.998Z,9.84
2022-11-15T07:01:09.268Z,9.81
2022-11-15T07:03:38.624Z,9.84
2022-11-15T07:06:07.834Z,9.81
2022-11-15T07:08:38.016Z,9.85
2022-11-15T07:11:08.882Z,9.88
2022-11-15T07:13:38.456Z,9.91
2022-11-15T07:16:08.706Z,9.88
2022-11-15T07:18:37.410Z,9.85
2022-11-15T07:21:07.901Z,9.86
2022-11-15T07:23:39.070Z,9.88
2022-11-15T07:26:08.001Z,9.85
2022-11-15T07:28:36.899Z,9.90
2022-11-15T07:31:05.805Z,9.86
2022-11-15T07:33:35.116Z,9.90
2022-11-15T07:36:04.052Z,9.93
2022-11-15T07:38:32.696Z,9.92
2022-11-15T07:41:04.171Z,9.95
2022-11-15T07:43:34.160Z,9.97
2022-11-15T07:46:10.224Z,9.97
2022-11-15T07:48:44.522Z,10.01
2022-11-15T07:51:14.969Z,10.04
2022-11-15T07:53:43.514Z,10.06
2022-11-15T07:56:13.042Z,10.04
2022-11-15T07:58:41.181Z,10.07
2022-11-15T08:01:10.470Z,10.07
2022-11-15T08:03:39.476Z,10.09
2022-11-15T08:06:08.014Z,10.10
2022-11-15T08:08:36.022Z,10.10
2022-11-15T08:11:04.376Z,10.11
2022-11-15T08:13:34.474Z,10.14
2022-11-15T08:16:06.613Z,10.15
2022-11-15T08:18:34.906Z,10.24
2022-11-15T08:21:03.552Z,10.20
2022-11-15T08:23:33.240Z,10.17
2022-11-15T08:26:03.817Z,10.21
2022-11-15T08:28:34.657Z,10.22
2022-11-15T08:31:02.883Z,10.23
2022-11-15T08:33:31.719Z,10.26
2022-11-15T08:36:01.014Z,10.28
2022-11-15T08:38:30.939Z,10.37
2022-11-15T08:41:08.189Z,10.40
2022-11-15T08:43:37.667Z,10.48
2022-11-15T08:46:06.158Z,10.59
2022-11-15T08:48:34.346Z,10.62
2022-11-15T08:51:02.554Z,10.64
2022-11-15T08:53:30.698Z,10.72
2022-11-15T08:55:58.812Z,10.74
2022-11-15T08:58:26.829Z,10.76
2022-11-15T09:00:56.228Z,10.85
2022-11-15T09:03:24.478Z,10.80
2022-11-15T09:05:56.929Z,10.82
2022-11-15T09:08:46.469Z,10.90
2022-11-15T09:11:13.485Z,10.90
2022-11-15T09:13:41.951Z,10.86
2022-11-15T09:16:13.027Z,10.85
2022-11-15T09:18:41.078Z,10.82
2022-11-15T09:21:09.688Z,10.82
2022-11-15T09:23:37.985Z,10.86
2022-11-15T09:26:07.504Z,10.81
2022-11-15T09:28:36.302Z,10.80
2022-11-15T09:31:06.558Z,10.80
2022-11-15T09:33:36.209Z,10.92
2022-11-15T09:36:06.655Z,10.86
2022-11-15T09:38:35.450Z,10.93
2022-11-15T09:41:36.178Z,10.91
2022-11-15T09:44:48.187Z,10.93
2022-11-15T09:47:43.300Z,10.98
2022-11-15T09:50:15.181Z,10.97
2022-11-15T09:52:46.448Z,11.01
2022-11-15T09:55:22.396Z,11.04
2022-11-15T09:57:58.440Z,11.08
2022-11-15T10:00:50.526Z,11.22
2022-11-15T10:03:25.338Z,11.30
2022-11-15T10:05:59.418Z,11.43
2022-11-15T10:08:52.520Z,11.48
2022-11-15T10:11:40.200Z,11.48
2022-11-15T10:14:14.178Z,11.52
2022-11-15T10:17:08.769Z,11.55
2022-11-15T10:19:43.383Z,11.66
2022-11-15T10:22:26.857Z,11.72
2022-11-15T10:25:12.976Z,11.70
2022-11-15T10:27:41.610Z,11.65
2022-11-15T10:30:15.501Z,11.61
2022-11-15T10:32:45.795Z,11.63
2022-11-15T10:35:27.508Z,11.70
2022-11-15T10:38:07.603Z,11.62
2022-11-15T10:40:36.986Z,11.72
2022-11-15T10:43:17.375Z,11.75
2022-11-15T10:45:46.855Z,11.76
2022-11-15T10:48:25.284Z,11.80
2022-11-15T10:50:54.932Z,11.77
2022-11-15T10:53:29.456Z,11.83
2022-11-15T10:56:02.974Z,11.87
2022-11-15T10:58:39.394Z,11.99
2022-11-15T11:01:17.576Z,12.04
2022-11-15T11:03:47.615Z,12.01
2022-11-15T11:06:17.351Z,12.06
2022-11-15T11:08:59.352Z,12.07
2022-11-15T11:11:45.536Z,12.07
2022-11-15T11:14:15.467Z,12.08
2022-11-15T11:16:53.288Z,12.08
2022-11-15T11:19:44.335Z,12.14
2022-11-15T11:22:22.000Z,12.06
2022-11-15T11:25:05.310Z,12.07
2022-11-15T11:27:43.320Z,12.10
2022-11-15T11:30:17.317Z,12.09
2022-11-15T11:33:09.477Z,12.08
2022-11-15T11:35:47.769Z,12.01
2022-11-15T11:38:37.819Z,11.96
2022-11-15T11:41:20.098Z,11.98
2022-11-15T11:44:00.640Z,12.04
2022-11-15T11:46:51.041Z,11.99
2022-11-15T11:49:25.595Z,11.83
2022-11-15T11:52:02.223Z,11.79
2022-11-15T11:54:37.099Z,11.88
2022-11-15T11:57:25.173Z,11.91
2022-11-15T11:59:58.918Z,11.91
2022-11-15T12:02:32.027Z,11.91
2022-11-15T12:05:04.395Z,11.86
2022-11-15T12:07:36.947Z,11.91
2022-11-15T12:10:15.400Z,11.87
2022-11-15T12:12:53.666Z,11.91
2022-11-15T12:15:25.399Z,12.01
2022-11-15T12:17:54.613Z,12.05
2022-11-15T12:20:25.169Z,11.99
2022-11-15T12:22:59.278Z,11.94
2022-11-15T12:25:33.326Z,11.87
2022-11-15T12:28:13.810Z,11.83
2022-11-15T12:30:47.515Z,11.90
2022-11-15T12:33:37.195Z,11.90
2022-11-15T12:36:07.690Z,11.91
2022-11-15T12:38:55.643Z,11.87
2022-11-15T12:41:25.209Z,11.92
2022-11-15T12:43:55.649Z,11.89
2022-11-15T12:46:46.657Z,11.95
2022-11-15T12:49:48.078Z,12.01
2022-11-15T12:52:17.422Z,12.08
2022-11-15T12:55:03.760Z,12.03
2022-11-15T12:57:43.529Z,12.05
2022-11-15T13:00:43.082Z,12.07
2022-11-15T13:03:26.158Z,12.08
2022-11-15T13:06:02.146Z,12.10
2022-11-15T13:08:41.932Z,12.02
2022-11-15T13:11:47.580Z,12.00
2022-11-15T13:14:44.899Z,11.98
2022-11-15T13:17:30.777Z,12.00
2022-11-15T13:20:19.047Z,12.07
2022-11-15T13:22:55.651Z,12.03
2022-11-15T13:25:43.106Z,12.07
2022-11-15T13:28:20.706Z,12.11
2022-11-15T13:30:53.801Z,12.13
2022-11-15T13:33:25.846Z,12.08
2022-11-15T13:35:57.245Z,12.05
2022-11-15T13:38:30.433Z,12.00
2022-11-15T13:41:00.241Z,12.04
2022-11-15T13:43:36.882Z,12.08
2022-11-15T13:46:15.445Z,12.03
2022-11-15T13:48:46.090Z,12.00
2022-11-15T13:51:22.717Z,11.94
2022-11-15T13:53:56.269Z,11.91
2022-11-15T13:56:24.900Z,11.87
2022-11-15T13:58:54.091Z,11.88
2022-11-15T14:01:23.994Z,11.89
2022-11-15T14:03:56.645Z,11.88
2022-11-15T14:06:26.729Z,11.86
2022-11-15T14:09:31.176Z,11.83
2022-11-15T14:11:59.584Z,11.77
2022-11-15T14:14:29.058Z,11.87
2022-11-15T14:16:58.305Z,11.86
2022-11-15T14:19:38.776Z,11.75
2022-11-15T14:22:15.377Z,11.74
2022-11-15T14:24:45.360Z,11.64
2022-11-15T14:27:22.480Z,11.66
2022-11-15T14:29:50.689Z,11.63
2022-11-15T14:32:22.060Z,11.64
2022-11-15T14:34:55.971Z,11.58
2022-11-15T14:37:27.338Z,11.55
2022-11-15T14:39:56.038Z,11.50
2022-11-15T14:42:27.140Z,11.52
2022-11-15T14:44:55.592Z,11.53
2022-11-15T14:47:23.872Z,11.48
2022-11-15T14:49:53.323Z,11.50
2022-11-15T14:52:32.698Z,11.36
2022-11-15T14:55:02.434Z,11.46
2022-11-15T14:57:31.123Z,11.44
2022-11-15T14:59:59.256Z,11.38
2022-11-15T15:02:28.968Z,11.38
2022-11-15T15:05:02.069Z,11.31
2022-11-15T15:07:30.440Z,11.36
2022-11-15T15:10:32.476Z,11.38
2022-11-15T15:12:49.951Z,11.39
2022-11-15T15:15:20.274Z,11.35
2022-11-15T15:17:48.411Z,11.36
2022-11-15T15:20:18.150Z,11.43
2022-11-15T15:22:46.604Z,11.38
2022-11-15T15:25:23.472Z,11.40
2022-11-15T15:27:51.915Z,11.37
2022-11-15T15:30:20.126Z,11.37
2022-11-15T15:32:48.202Z,11.32
2022-11-15T15:35:18.752Z,11.38
2022-11-15T15:37:47.933Z,11.34
2022-11-15T15:40:18.313Z,11.33
2022-11-15T15:42:46.366Z,11.31
2022-11-15T15:45:15.938Z,11.28
2022-11-15T15:47:47.157Z,11.29
2022-11-15T15:50:23.353Z,11.22
2022-11-15T15:52:51.993Z,11.20
2022-11-15T15:55:20.276Z,11.29
2022-11-15T15:57:48.575Z,11.31
2022-11-15T16:00:18.554Z,11.30
2022-11-15T16:02:46.803Z,11.26
2022-11-15T16:05:15.122Z,11.23
2022-11-15T16:07:45.224Z,11.20
2022-11-15T16:10:22.060Z,11.29
2022-11-15T16:12:50.514Z,11.27
2022-11-15T16:15:19.350Z,11.28
2022-11-15T16:17:52.003Z,11.24
2022-11-15T16:20:33.125Z,11.36
2022-11-15T16:23:08.834Z,11.30
2022-11-15T16:25:42.229Z,11.34
2022-11-15T16:28:21.991Z,11.29
2022-11-15T16:30:56.606Z,11.26
2022-11-15T16:33:25.494Z,11.29
2022-11-15T16:35:53.747Z,11.25
2022-11-15T16:38:23.098Z,11.29
2022-11-15T16:40:51.281Z,11.33
2022-11-15T16:43:19.343Z,11.38
2022-11-15T16:45:50.715Z,11.43
2022-11-15T16:48:25.205Z,11.42
2022-11-15T16:50:57.441Z,11.43
2022-11-15T16:53:27.944Z,11.41
2022-11-15T16:55:56.621Z,11.39
2022-11-15T16:58:25.219Z,11.40
2022-11-15T17:00:54.394Z,11.39
2022-11-15T17:03:23.134Z,11.37
2022-11-15T17:05:51.572Z,11.37
2022-11-15T17:08:20.939Z,11.39
2022-11-15T17:10:50.496Z,11.50
2022-11-15T17:13:18.552Z,11.49
2022-11-15T17:15:46.684Z,11.45
2022-11-15T17:18:15.731Z,11.47
2022-11-15T17:20:43.949Z,11.44
2022-11-15T17:23:15.041Z,11.48
2022-11-15T17:25:43.559Z,11.44
2022-11-15T17:28:13.025Z,11.46
2022-11-15T17:30:44.682Z,11.50
2022-11-15T17:33:12.798Z,11.49
2022-11-15T17:35:40.805Z,11.49
2022-11-15T17:38:11.595Z,11.44
2022-11-15T17:40:39.611Z,11.51
2022-11-15T17:43:08.141Z,11.49
2022-11-15T17:45:41.628Z,11.50
2022-11-15T17:48:09.647Z,11.45
2022-11-15T17:50:37.633Z,11.46
2022-11-15T17:53:05.689Z,11.43
2022-11-15T17:55:34.032Z,11.41
2022-11-15T17:58:02.041Z,11.39
2022-11-15T18:00:30.003Z,11.30
2022-11-15T18:02:59.795Z,11.36
2022-11-15T18:05:27.781Z,11.34
2022-11-15T18:07:55.849Z,11.42
2022-11-15T18:10:23.910Z,11.38
2022-11-15T18:12:52.188Z,11.43
2022-11-15T18:15:21.394Z,11.44
2022-11-15T18:17:49.441Z,11.36
2022-11-15T18:20:19.404Z,11.35
2022-11-15T18:22:47.408Z,11.38
2022-11-15T18:25:16.282Z,11.23
2022-11-15T18:27:44.295Z,11.26
2022-11-15T18:30:13.294Z,11.24
2022-11-15T18:32:41.337Z,11.20
2022-11-15T18:35:09.577Z,11.11
2022-11-15T18:37:39.001Z,11.16
2022-11-15T18:40:08.300Z,11.13
2022-11-15T18:42:36.308Z,11.10
2022-11-15T18:45:04.711Z,11.19
2022-11-15T18:47:32.669Z,11.11
2022-11-15T18:50:00.785Z,11.03
2022-11-15T18:52:28.886Z,11.11
2022-11-15T18:54:58.294Z,11.01
2022-11-15T18:57:26.395Z,11.05
2022-11-15T18:59:54.386Z,11.02
2022-11-15T19:02:22.432Z,11.02
2022-11-15T19:04:50.470Z,10.96
2022-11-15T19:07:18.815Z,10.92
2022-11-15T19:09:47.604Z,10.93
2022-11-15T19:12:17.165Z,10.92
2022-11-15T19:14:45.385Z,10.90
2022-11-15T19:17:13.417Z,10.87
2022-11-15T19:19:41.581Z,10.88
2022-11-15T19:22:09.613Z,10.87
2022-11-15T19:24:37.575Z,10.96
2022-11-15T19:27:05.785Z,10.87
2022-11-15T19:29:35.459Z,10.91
2022-11-15T19:32:05.287Z,10.91
2022-11-15T19:34:33.441Z,10.88
2022-11-15T19:37:03.253Z,10.83
2022-11-15T19:39:31.284Z,10.90
2022-11-15T19:41:59.238Z,10.86
2022-11-15T19:44:27.473Z,10.91
2022-11-15T19:46:57.111Z,10.84
2022-11-15T19:49:25.193Z,10.86
2022-11-15T19:51:53.236Z,10.85
2022-11-15T19:54:21.309Z,10.82
2022-11-15T19:56:49.441Z,10.82
2022-11-15T19:59:17.749Z,10.81
2022-11-15T20:01:45.784Z,10.83
2022-11-15T20:04:15.197Z,10.84
2022-11-15T20:06:44.443Z,10.79
2022-11-15T20:09:17.904Z,10.79
2022-11-15T20:11:46.123Z,10.82
2022-11-15T20:14:14.365Z,10.80
2022-11-15T20:16:42.869Z,10.82
2022-11-15T20:19:12.563Z,10.75
2022-11-15T20:21:43.994Z,10.80
2022-11-15T20:24:12.298Z,10.78
2022-11-15T20:26:40.714Z,10.76
2022-11-15T20:29:10.118Z,10.71
2022-11-15T20:31:38.508Z,10.68
2022-11-15T20:34:07.024Z,10.72
2022-11-15T20:36:35.199Z,10.69
2022-11-15T20:39:04.730Z,10.72
2022-11-15T20:41:35.088Z,10.70
2022-11-15T20:44:04.063Z,10.73
2022-11-15T20:46:32.179Z,10.68
2022-11-15T20:49:00.349Z,10.67
2022-11-15T20:51:28.556Z,10.64
2022-11-15T20:53:57.279Z,10.67
2022-11-15T20:56:26.733Z,10.71
2022-11-15T20:58:56.531Z,10.72
2022-11-15T21:01:25.557Z,10.69
2022-11-15T21:03:54.711Z,10.61
2022-11-15T21:06:24.007Z,10.64
2022-11-15T21:09:10.882Z,10.67
2022-11-15T21:11:58.295Z,10.68
2022-11-15T21:14:26.455Z,10.70
2022-11-15T21:16:54.588Z,10.64
2022-11-15T21:19:27.270Z,10.65
2022-11-15T21:21:59.289Z,10.68
2022-11-15T21:24:27.348Z,10.68
2022-11-15T21:26:57.232Z,10.69
2022-11-15T21:29:25.706Z,10.70
2022-11-15T21:31:53.924Z,10.68
2022-11-15T21:34:22.145Z,10.63
2022-11-15T21:36:50.155Z,10.65
2022-11-15T21:39:18.174Z,10.73
2022-11-15T21:41:48.497Z,10.70
2022-11-15T21:44:17.961Z,10.67
2022-11-15T21:46:46.053Z,10.71
2022-11-15T21:49:14.126Z,10.69
2022-11-15T21:51:42.786Z,10.65
2022-11-15T21:54:10.911Z,10.65
2022-11-15T21:56:39.025Z,10.72
2022-11-15T21:59:07.141Z,10.81
2022-11-15T22:01:54.259Z,10.81
2022-11-15T22:04:24.104Z,10.77
2022-11-15T22:06:52.549Z,10.74
2022-11-15T22:09:20.633Z,10.73
2022-11-15T22:11:48.683Z,10.76
2022-11-15T22:14:17.394Z,10.77
2022-11-15T22:16:46.859Z,10.82
2022-11-15T22:19:14.985Z,10.84
2022-11-15T22:21:43.306Z,10.78
2022-11-15T22:24:11.759Z,10.80
2022-11-15T22:26:39.809Z,10.76
2022-11-15T22:29:07.929Z,10.72
2022-11-15T22:31:35.970Z,10.76
2022-11-15T22:34:05.355Z,10.72
2022-11-15T22:36:58.428Z,10.80
2022-11-15T22:39:24.451Z,10.76
2022-11-15T22:41:53.388Z,10.75
2022-11-15T22:44:22.194Z,10.78
2022-11-15T22:46:51.131Z,10.78
2022-11-15T22:49:20.581Z,10.86
2022-11-15T22:51:48.601Z,10.83
2022-11-15T22:54:16.647Z,10.77
2022-11-15T22:56:44.827Z,10.76
2022-11-15T22:59:12.839Z,10.77
2022-11-15T23:01:40.905Z,10.75
2022-11-15T23:04:09.075Z,10.75
2022-11-15T23:06:38.542Z,10.79
2022-11-15T23:09:06.600Z,10.77
2022-11-15T23:11:52.684Z,10.72
2022-11-15T23:14:20.801Z,10.80
2022-11-15T23:16:48.905Z,10.75
2022-11-15T23:19:17.109Z,10.75
2022-11-15T23:22:05.702Z,10.82
2022-11-15T23:24:34.877Z,10.78
2022-11-15T23:27:05.120Z,10.85
2022-11-15T23:29:53.270Z,10.77
2022-11-15T23:32:38.764Z,10.80
2022-11-15T23:35:07.338Z,10.72
2022-11-15T23:37:36.988Z,10.78
2022-11-15T23:40:05.900Z,10.73
2022-11-15T23:42:34.042Z,10.72
2022-11-15T23:45:02.138Z,10.79
2022-11-15T23:47:30.263Z,10.80
2022-11-15T23:49:58.695Z,10.73
2022-11-15T23:52:26.787Z,10.72
2022-11-15T23:54:56.494Z,10.77
2022-11-15T23:57:24.602Z,10.80
2022-11-15T23:59:52.663Z,10.85
